createdAt,value
2018-05-02T01:01:45.200Z,10.40
2018-05-02T01:04:12.715Z,10.40
2018-05-02T01:06:40.570Z,10.40
2018-05-02T01:09:08.136Z,10.30
2018-05-02T01:11:36.626Z,10.20
2018-05-02T01:14:04.392Z,10.20
2018-05-02T01:16:32.229Z,10.20
2018-05-02T01:19:00.685Z,10.20
2018-05-02T01:21:28.376Z,10.20
2018-05-02T01:23:55.862Z,10.20
2018-05-02T01:26:24.165Z,10.20
2018-05-02T01:28:51.862Z,10.10
2018-05-02T01:31:20.392Z,10.20
2018-05-02T01:33:48.650Z,10.10
2018-05-02T01:36:16.288Z,10.10
2018-05-02T01:38:44.266Z,10.10
2018-05-02T01:41:11.913Z,10.00
2018-05-02T01:43:40.555Z,9.90
2018-05-02T01:46:08.816Z,9.90
2018-05-02T01:48:36.291Z,9.90
2018-05-02T01:51:03.807Z,9.90
2018-05-02T01:53:31.503Z,9.90
2018-05-02T01:56:00.289Z,10.00
2018-05-02T01:58:28.264Z,10.00
2018-05-02T02:00:56.710Z,10.00
2018-05-02T02:03:24.375Z,10.00
2018-05-02T02:05:53.378Z,10.00
2018-05-02T02:08:22.135Z,10.00
2018-05-02T02:10:49.640Z,10.00
2018-05-02T02:13:17.124Z,9.90
2018-05-02T02:15:44.698Z,9.90
2018-05-02T02:18:12.182Z,9.90
2018-05-02T02:20:39.667Z,9.90
2018-05-02T02:23:07.916Z,9.90
2018-05-02T02:25:35.916Z,9.90
2018-05-02T02:28:03.398Z,9.90
2018-05-02T02:30:30.890Z,9.90
2018-05-02T02:32:58.941Z,9.90
2018-05-02T02:35:26.413Z,9.80
2018-05-02T02:37:53.904Z,9.80
2018-05-02T02:40:22.505Z,9.80
2018-05-02T02:42:49.987Z,9.80
2018-05-02T02:45:17.825Z,9.80
2018-05-02T02:47:45.308Z,9.80
2018-05-02T02:50:12.893Z,9.80
2018-05-02T02:52:40.377Z,9.80
2018-05-02T02:55:08.081Z,9.80
2018-05-02T02:57:36.121Z,9.80
2018-05-02T03:00:03.884Z,9.70
2018-05-02T03:02:32.282Z,9.80
2018-05-02T03:04:59.961Z,9.70
2018-05-02T03:07:27.599Z,9.80
2018-05-02T03:09:56.013Z,9.70
2018-05-02T03:12:23.494Z,9.70
2018-05-02T03:14:50.984Z,9.70
2018-05-02T03:17:18.679Z,9.70
2018-05-02T03:19:46.253Z,9.70
2018-05-02T03:22:13.796Z,9.70
2018-05-02T03:24:41.624Z,9.60
2018-05-02T03:27:09.195Z,9.60
2018-05-02T03:29:36.614Z,9.60
2018-05-02T03:32:04.316Z,9.60
2018-05-02T03:34:32.569Z,9.60
2018-05-02T03:37:00.590Z,9.60
2018-05-02T03:39:29.036Z,9.50
2018-05-02T03:41:57.259Z,9.50
2018-05-02T03:44:25.369Z,9.50
2018-05-02T03:46:52.861Z,9.50
2018-05-02T03:49:20.498Z,9.50
2018-05-02T03:51:47.999Z,9.50
2018-05-02T03:54:15.646Z,9.50
2018-05-02T03:56:43.134Z,9.50
2018-05-02T03:59:10.693Z,9.40
2018-05-02T04:01:50.069Z,9.50
2018-05-02T04:04:29.641Z,9.40
2018-05-02T04:07:14.874Z,9.30
2018-05-02T04:09:43.194Z,9.30
2018-05-02T04:12:12.301Z,9.30
2018-05-02T04:14:39.798Z,9.30
2018-05-02T04:17:08.060Z,9.30
2018-05-02T04:19:35.869Z,9.30
2018-05-02T04:22:03.859Z,9.30
2018-05-02T04:24:31.417Z,9.30
2018-05-02T04:26:58.928Z,9.30
2018-05-02T04:29:27.139Z,9.40
2018-05-02T04:31:54.981Z,9.40
2018-05-02T04:34:22.836Z,9.40
2018-05-02T04:36:50.327Z,9.40
2018-05-02T04:39:18.178Z,9.40
2018-05-02T04:41:45.675Z,9.50
2018-05-02T04:44:13.183Z,9.50
2018-05-02T04:46:41.545Z,9.60
2018-05-02T04:49:09.258Z,9.60
2018-05-02T04:51:36.755Z,9.60
2018-05-02T04:54:04.241Z,9.60
2018-05-02T04:56:32.209Z,9.60
2018-05-02T04:59:00.851Z,9.80
2018-05-02T05:01:28.324Z,9.70
2018-05-02T05:03:55.812Z,9.80
2018-05-02T05:06:23.404Z,9.90
2018-05-02T05:08:50.961Z,9.90
2018-05-02T05:11:18.539Z,10.00
2018-05-02T05:13:46.289Z,10.10
2018-05-02T05:16:13.896Z,10.10
2018-05-02T05:18:42.926Z,10.20
2018-05-02T05:21:11.397Z,10.30
2018-05-02T05:23:38.949Z,10.30
2018-05-02T05:26:06.817Z,10.40
2018-05-02T05:28:34.502Z,10.50
2018-05-02T05:31:01.983Z,10.50
2018-05-02T05:33:29.833Z,10.60
2018-05-02T05:35:57.320Z,10.70
2018-05-02T05:38:24.950Z,10.90
2018-05-02T05:40:52.439Z,11.20
2018-05-02T05:43:20.528Z,11.50
2018-05-02T05:45:48.732Z,11.50
2018-05-02T05:48:16.230Z,11.80
2018-05-02T05:50:43.720Z,12.10
2018-05-02T05:53:11.211Z,12.00
2018-05-02T05:55:38.718Z,12.30
2018-05-02T05:58:06.212Z,12.20
2018-05-02T06:00:34.487Z,12.50
2018-05-02T06:03:02.269Z,12.50
2018-05-02T06:05:29.939Z,12.50
2018-05-02T06:07:57.427Z,12.50
2018-05-02T06:10:24.952Z,13.40
2018-05-02T06:12:52.442Z,13.90
2018-05-02T06:15:20.047Z,14.10
2018-05-02T06:17:47.543Z,14.10
2018-05-02T06:20:15.354Z,14.10
2018-05-02T06:22:42.863Z,14.10
2018-05-02T06:25:10.913Z,14.00
2018-05-02T06:27:39.547Z,14.20
2018-05-02T06:30:07.038Z,14.20
2018-05-02T06:32:35.320Z,14.30
2018-05-02T06:35:02.817Z,14.40
2018-05-02T06:37:30.643Z,14.20
2018-05-02T06:39:58.129Z,14.40
2018-05-02T06:42:25.773Z,14.80
2018-05-02T06:44:54.052Z,15.20
2018-05-02T06:47:21.635Z,15.20
2018-05-02T06:49:49.178Z,14.90
2018-05-02T06:52:16.687Z,15.20
2018-05-02T06:54:44.341Z,15.00
2018-05-02T06:57:12.555Z,15.80
2018-05-02T06:59:40.081Z,16.90
2018-05-02T07:02:07.593Z,17.50
2018-05-02T07:04:35.352Z,17.90
2018-05-02T07:07:02.845Z,18.60
2018-05-02T07:09:30.348Z,19.50
2018-05-02T07:11:59.540Z,21.80
2018-05-02T07:14:27.826Z,21.80
2018-05-02T07:16:55.833Z,21.80
2018-05-02T07:19:24.700Z,21.90
2018-05-02T07:21:53.473Z,21.70
2018-05-02T07:24:20.981Z,22.10
2018-05-02T07:26:48.480Z,22.70
2018-05-02T07:29:16.204Z,22.60
2018-05-02T07:31:44.733Z,21.90
2018-05-02T07:34:12.213Z,21.90
2018-05-02T07:36:40.282Z,21.50
2018-05-02T07:39:07.810Z,21.20
2018-05-02T07:41:35.338Z,21.00
2018-05-02T07:44:03.042Z,21.50
2018-05-02T07:46:30.929Z,21.30
2018-05-02T07:48:58.447Z,20.90
2018-05-02T07:51:26.727Z,19.80
2018-05-02T07:53:54.278Z,19.70
2018-05-02T07:56:21.881Z,19.30
2018-05-02T07:58:49.323Z,18.40
2018-05-02T08:01:16.822Z,17.60
2018-05-02T08:03:44.884Z,17.00
2018-05-02T08:06:12.507Z,16.50
2018-05-02T08:08:40.484Z,16.10
2018-05-02T08:11:08.080Z,15.80
2018-05-02T08:13:36.034Z,15.50
2018-05-02T08:16:03.560Z,15.30
2018-05-02T08:18:32.140Z,15.00
2018-05-02T08:21:00.518Z,15.10
2018-05-02T08:23:29.945Z,15.10
2018-05-02T08:25:57.627Z,15.20
2018-05-02T08:28:25.417Z,15.30
2018-05-02T08:30:53.095Z,15.30
2018-05-02T08:33:20.827Z,15.40
2018-05-02T08:35:48.323Z,15.80
2018-05-02T08:38:16.076Z,16.10
2018-05-02T08:40:44.352Z,17.40
2018-05-02T08:43:12.062Z,17.40
2018-05-02T08:45:39.558Z,17.80
2018-05-02T08:48:07.052Z,18.20
2018-05-02T08:50:34.552Z,18.50
2018-05-02T08:53:02.084Z,18.50
2018-05-02T08:55:30.096Z,18.30
2018-05-02T08:57:57.688Z,18.10
2018-05-02T09:00:25.183Z,17.90
2018-05-02T09:02:52.676Z,18.20
2018-05-02T09:05:20.200Z,19.00
2018-05-02T09:07:47.724Z,19.40
2018-05-02T09:10:16.317Z,19.20
2018-05-02T09:12:44.581Z,19.20
2018-05-02T09:15:13.072Z,18.80
2018-05-02T09:17:40.929Z,18.80
2018-05-02T09:20:09.037Z,18.30
2018-05-02T09:22:36.536Z,18.10
2018-05-02T09:25:05.372Z,18.10
2018-05-02T09:27:32.987Z,18.00
2018-05-02T09:30:00.484Z,17.80
2018-05-02T09:32:28.138Z,18.00
2018-05-02T09:34:55.665Z,18.50
2018-05-02T09:37:24.076Z,18.80
2018-05-02T09:39:51.576Z,19.40
2018-05-02T09:42:19.352Z,19.80
2018-05-02T09:44:47.158Z,20.20
2018-05-02T09:47:14.843Z,19.60
2018-05-02T09:49:43.407Z,20.20
2018-05-02T09:52:11.418Z,21.60
2018-05-02T09:54:38.932Z,22.90
2018-05-02T09:57:06.520Z,24.10
2018-05-02T09:59:34.204Z,25.10
2018-05-02T10:02:01.697Z,24.70
2018-05-02T10:04:29.212Z,24.30
2018-05-02T10:06:56.693Z,24.40
2018-05-02T10:09:24.429Z,24.20
2018-05-02T10:11:51.949Z,23.90
2018-05-02T10:14:20.531Z,23.70
2018-05-02T10:16:48.041Z,23.60
2018-05-02T10:19:15.573Z,23.20
2018-05-02T10:21:43.618Z,23.00
2018-05-02T10:24:11.961Z,23.10
2018-05-02T10:26:39.684Z,23.00
2018-05-02T10:29:07.180Z,23.00
2018-05-02T10:31:34.665Z,22.60
2018-05-02T10:34:03.800Z,22.30
2018-05-02T10:36:32.789Z,22.30
2018-05-02T10:39:00.348Z,21.40
2018-05-02T10:41:27.844Z,21.00
2018-05-02T10:43:55.324Z,21.00
2018-05-02T10:46:24.244Z,21.30
2018-05-02T10:48:52.026Z,21.30
2018-05-02T10:51:19.828Z,21.10
2018-05-02T10:53:47.478Z,21.10
2018-05-02T10:56:15.013Z,21.40
2018-05-02T10:58:42.661Z,21.50
2018-05-02T11:01:10.182Z,21.50
2018-05-02T11:03:37.984Z,22.20
2018-05-02T11:06:05.830Z,22.20
2018-05-02T11:08:34.440Z,21.50
2018-05-02T11:11:01.973Z,21.40
2018-05-02T11:13:30.314Z,21.00
2018-05-02T11:15:58.116Z,21.00
2018-05-02T11:18:25.617Z,20.90
2018-05-02T11:20:54.820Z,21.20
2018-05-02T11:23:22.297Z,21.50
2018-05-02T11:25:50.018Z,21.80
2018-05-02T11:28:17.562Z,21.90
2018-05-02T11:30:45.345Z,21.50
2018-05-02T11:33:12.876Z,20.80
2018-05-02T11:35:41.696Z,21.00
2018-05-02T11:38:09.307Z,21.00
2018-05-02T11:40:37.645Z,21.10
2018-05-02T11:43:05.267Z,21.10
2018-05-02T11:45:33.593Z,21.00
2018-05-02T11:48:02.213Z,21.00
2018-05-02T11:50:29.909Z,21.00
2018-05-02T11:52:58.577Z,21.00
2018-05-02T11:55:26.150Z,21.30
2018-05-02T11:57:53.758Z,21.40
2018-05-02T12:00:21.307Z,21.40
2018-05-02T12:02:48.862Z,21.50
2018-05-02T12:05:16.405Z,21.30
2018-05-02T12:07:43.896Z,21.40
2018-05-02T12:10:11.385Z,21.30
2018-05-02T12:12:38.962Z,21.30
2018-05-02T12:15:06.705Z,21.80
2018-05-02T12:17:34.585Z,21.90
2018-05-02T12:20:02.258Z,22.20
2018-05-02T12:22:30.123Z,22.60
2018-05-02T12:24:58.806Z,22.60
2018-05-02T12:27:26.399Z,22.50
2018-05-02T12:29:53.930Z,22.80
2018-05-02T12:32:21.421Z,22.90
2018-05-02T12:34:49.526Z,22.80
2018-05-02T12:37:17.223Z,22.10
2018-05-02T12:39:45.841Z,22.10
2018-05-02T12:42:13.984Z,21.90
2018-05-02T12:44:41.475Z,21.90
2018-05-02T12:47:09.006Z,21.70
2018-05-02T12:49:37.793Z,21.60
2018-05-02T12:52:05.356Z,21.40
2018-05-02T12:54:33.044Z,21.30
2018-05-02T12:57:00.578Z,21.50
2018-05-02T12:59:28.215Z,21.30
2018-05-02T13:02:05.548Z,21.20
2018-05-02T13:07:52.286Z,21.00
2018-05-02T13:10:20.466Z,20.90
2018-05-02T13:13:04.503Z,20.70
2018-05-02T13:15:43.360Z,20.60
2018-05-02T13:18:40.856Z,20.60
2018-05-02T13:27:37.337Z,20.90
2018-05-02T13:30:24.765Z,20.90
2018-05-02T13:32:52.862Z,20.70
2018-05-02T13:38:34.706Z,20.80
2018-05-02T13:41:02.286Z,20.80
2018-05-02T13:43:29.871Z,20.80
2018-05-02T13:45:58.890Z,20.90
2018-05-02T13:48:26.814Z,20.90
2018-05-02T13:50:54.391Z,20.90
2018-05-02T13:53:24.240Z,20.20
2018-05-02T13:55:54.479Z,20.20
2018-05-02T13:58:22.202Z,20.20
2018-05-02T14:00:50.669Z,20.20
2018-05-02T14:03:18.167Z,20.20
2018-05-02T14:05:45.684Z,20.30
2018-05-02T14:08:13.184Z,20.30
2018-05-02T14:10:41.653Z,20.10
2018-05-02T14:13:09.321Z,20.10
2018-05-02T14:15:36.849Z,20.30
2018-05-02T14:18:05.673Z,20.20
2018-05-02T14:20:33.289Z,20.20
2018-05-02T14:23:00.809Z,20.10
2018-05-02T14:25:28.676Z,20.20
2018-05-02T14:27:56.325Z,20.00
2018-05-02T14:30:24.952Z,20.00
2018-05-02T14:32:53.290Z,20.00
2018-05-02T14:35:20.731Z,20.00
2018-05-02T14:37:48.711Z,20.10
2018-05-02T14:40:16.233Z,20.10
2018-05-02T14:42:44.493Z,20.30
2018-05-02T14:45:12.493Z,20.30
2018-05-02T14:47:40.356Z,20.40
2018-05-02T14:50:07.875Z,20.40
2018-05-02T14:52:35.496Z,20.40
2018-05-02T14:55:02.999Z,20.50
2018-05-02T14:57:30.543Z,20.70
2018-05-02T14:59:58.039Z,20.60
2018-05-02T15:02:25.801Z,20.70
2018-05-02T15:04:55.439Z,20.70
2018-05-02T15:07:24.661Z,20.70
2018-05-02T15:09:52.250Z,20.60
2018-05-02T15:12:20.009Z,20.40
2018-05-02T15:14:47.594Z,20.40
2018-05-02T15:17:15.515Z,20.30
2018-05-02T15:19:43.046Z,20.10
2018-05-02T15:22:11.115Z,19.90
2018-05-02T15:24:38.669Z,19.80
2018-05-02T15:27:06.333Z,19.60
2018-05-02T15:29:33.860Z,19.60
2018-05-02T15:32:01.440Z,19.60
2018-05-02T15:34:28.877Z,19.50
2018-05-02T15:36:56.805Z,19.30
2018-05-02T15:39:24.621Z,19.30
2018-05-02T15:41:52.219Z,19.10
2018-05-02T15:44:20.289Z,19.10
2018-05-02T15:46:47.831Z,19.00
2018-05-02T15:49:15.560Z,19.00
2018-05-02T15:51:45.097Z,18.90
2018-05-02T15:54:13.087Z,18.90
2018-05-02T15:56:40.945Z,18.80
2018-05-02T15:59:09.085Z,18.80
2018-05-02T16:01:37.622Z,18.80
2018-05-02T16:04:05.126Z,18.80
2018-05-02T16:06:33.743Z,18.90
2018-05-02T16:09:01.799Z,18.80
2018-05-02T16:11:29.345Z,18.90
2018-05-02T16:13:58.720Z,19.00
2018-05-02T16:16:26.354Z,19.00
2018-05-02T16:18:55.287Z,19.10
2018-05-02T16:21:22.796Z,19.10
2018-05-02T16:23:50.313Z,19.20
2018-05-02T16:26:18.938Z,19.20
2018-05-02T16:28:46.691Z,19.20
2018-05-02T16:44:18.588Z,18.60
2018-05-02T16:46:50.158Z,18.50
2018-05-02T16:49:26.858Z,18.50
2018-05-02T16:51:55.510Z,18.40
2018-05-02T16:54:24.731Z,18.50
2018-05-02T16:56:56.487Z,18.40
2018-05-02T16:59:29.221Z,18.30
2018-05-02T17:01:58.937Z,18.30
2018-05-02T17:04:26.581Z,18.30
2018-05-02T17:07:04.711Z,18.20
2018-05-02T17:10:03.378Z,18.10
2018-05-02T17:12:31.474Z,18.00
2018-05-02T17:15:09.805Z,17.80
2018-05-02T17:17:38.024Z,17.80
2018-05-02T17:20:06.797Z,17.80
2018-05-02T17:25:42.437Z,17.70
2018-05-02T17:28:10.072Z,17.60
2018-05-02T17:30:38.882Z,17.50
2018-05-02T17:33:06.508Z,17.40
2018-05-02T17:35:34.304Z,17.40
2018-05-02T17:38:01.813Z,17.30
2018-05-02T17:40:29.391Z,17.30
2018-05-02T17:42:57.227Z,17.20
2018-05-02T17:45:24.720Z,17.10
2018-05-02T17:47:52.977Z,17.00
2018-05-02T17:50:21.110Z,16.90
2018-05-02T17:52:48.615Z,16.90
2018-05-02T17:55:16.340Z,16.80
2018-05-02T17:57:43.840Z,16.70
2018-05-02T18:00:11.765Z,16.70
2018-05-02T18:02:39.798Z,16.60
2018-05-02T18:05:07.641Z,16.50
2018-05-02T18:07:35.150Z,16.40
2018-05-02T18:10:02.782Z,16.40
2018-05-02T18:12:30.673Z,16.30
2018-05-02T18:14:58.195Z,16.20
2018-05-02T18:17:26.486Z,16.20
2018-05-02T18:19:54.310Z,16.10
2018-05-02T18:22:24.004Z,16.10
2018-05-02T18:24:52.043Z,16.00
2018-05-02T18:27:21.284Z,16.00
2018-05-02T18:29:48.873Z,15.90
2018-05-02T18:32:16.630Z,15.80
2018-05-02T18:34:45.884Z,15.80
2018-05-02T18:37:15.124Z,15.70
2018-05-02T18:39:42.789Z,15.70
2018-05-02T18:42:10.710Z,15.60
2018-05-02T18:44:38.337Z,15.60
2018-05-02T18:47:06.483Z,15.50
2018-05-02T18:49:34.211Z,15.50
2018-05-02T18:52:02.487Z,15.40
2018-05-02T18:54:30.787Z,15.40
2018-05-02T18:56:58.290Z,15.30
2018-05-02T18:59:26.727Z,15.20
2018-05-02T19:01:54.458Z,15.20
2018-05-02T19:04:23.056Z,15.20
2018-05-02T19:06:50.556Z,15.10
2018-05-02T19:09:18.778Z,15.10
2018-05-02T19:11:49.249Z,15.00
2018-05-02T19:14:17.343Z,15.00
2018-05-02T19:16:46.819Z,14.90
2018-05-02T19:19:21.775Z,14.90
2018-05-02T19:21:49.967Z,14.90
2018-05-02T19:24:19.029Z,14.70
2018-05-02T19:26:49.184Z,14.70
2018-05-02T19:29:17.108Z,14.60
2018-05-02T19:31:50.489Z,14.60
2018-05-02T19:34:18.709Z,14.50
2018-05-02T19:36:46.493Z,14.40
2018-05-02T19:39:14.037Z,14.40
2018-05-02T19:41:50.243Z,14.30
2018-05-02T19:44:18.464Z,14.20
2018-05-02T19:46:46.849Z,14.20
2018-05-02T19:49:14.770Z,14.10
2018-05-02T19:51:48.216Z,14.00
2018-05-02T19:54:16.361Z,13.90
2018-05-02T19:56:43.939Z,13.90
2018-05-02T19:59:12.171Z,13.80
2018-05-02T20:01:46.646Z,13.60
2018-05-02T20:04:14.922Z,13.60
2018-05-02T20:06:42.448Z,13.60
2018-05-02T20:09:16.352Z,13.50
2018-05-02T20:11:50.098Z,13.50
2018-05-02T20:14:17.821Z,13.50
2018-05-02T20:16:45.409Z,13.40
2018-05-02T20:19:12.977Z,13.30
2018-05-02T20:21:40.731Z,13.30
2018-05-02T20:24:08.244Z,13.20
2018-05-02T20:26:35.997Z,13.20
2018-05-02T20:29:03.499Z,13.10
2018-05-02T20:31:31.028Z,13.10
2018-05-02T20:33:58.823Z,13.10
2018-05-02T20:36:26.654Z,13.10
2018-05-02T20:38:54.156Z,13.10
2018-05-02T20:41:22.237Z,13.10
2018-05-02T20:43:49.901Z,13.00
2018-05-02T20:46:17.718Z,13.00
2018-05-02T20:48:47.214Z,13.00
2018-05-02T20:51:15.640Z,13.00
2018-05-02T20:53:44.039Z,13.00
2018-05-02T20:56:12.041Z,13.00
2018-05-02T20:58:39.741Z,13.00
2018-05-02T21:01:08.928Z,12.90
2018-05-02T21:03:36.898Z,12.90
2018-05-02T21:06:05.298Z,12.80
2018-05-02T21:08:33.832Z,12.80
